sensor_id;sensor_type;location;lat;lon;timestamp;temperature;humidity
29803;DHT22;16702;50.898;4.662;2024-03-23T00:52:15;10.90;99.90
29803;DHT22;16702;50.898;4.662;2024-03-23T00:57:49;10.90;99.90
29803;DHT22;16702;50.898;4.662;2024-03-23T00:58:37;10.90;99.90
29803;DHT22;16702;50.898;4.662;2024-03-23T01:04:28;10.90;99.90
29803;DHT22;16702;50.898;4.662;2024-03-23T01:07:07;10.80;99.90
29803;DHT22;16702;50.898;4.662;2024-03-23T01:09:47;10.60;99.90
29803;DHT22;16702;50.898;4.662;2024-03-23T01:13:30;10.70;99.90
29803;DHT22;16702;50.898;4.662;2024-03-23T01:16:59;10.80;99.90
29803;DHT22;16702;50.898;4.662;2024-03-23T01:18:58;10.80;99.90
29803;DHT22;16702;50.898;4.662;2024-03-23T01:21:31;10.80;99.90
29803;DHT22;16702;50.898;4.662;2024-03-23T01:24:39;10.80;99.90
29803;DHT22;16702;50.898;4.662;2024-03-23T01:30:12;10.70;99.90
29803;DHT22;16702;50.898;4.662;2024-03-23T01:32:52;10.70;99.90
29803;DHT22;16702;50.898;4.662;2024-03-23T01:35:33;10.60;99.90
29803;DHT22;16702;50.898;4.662;2024-03-23T01:38:10;10.60;99.90
29803;DHT22;16702;50.898;4.662;2024-03-23T01:40:38;10.60;99.90
29803;DHT22;16702;50.898;4.662;2024-03-23T01:43:07;10.60;99.90
29803;DHT22;16702;50.898;4.662;2024-03-23T01:45:58;10.70;99.90
29803;DHT22;16702;50.898;4.662;2024-03-23T01:48:46;10.60;99.90
29803;DHT22;16702;50.898;4.662;2024-03-23T01:54:15;10.60;99.90
29803;DHT22;16702;50.898;4.662;2024-03-23T01:54:44;10.70;99.90
29803;DHT22;16702;50.898;4.662;2024-03-23T01:57:24;10.60;99.90
29803;DHT22;16702;50.898;4.662;2024-03-23T02:00:28;10.50;99.90
29803;DHT22;16702;50.898;4.662;2024-03-23T02:03:54;10.60;99.90
29803;DHT22;16702;50.898;4.662;2024-03-23T02:09:38;10.50;99.90
29803;DHT22;16702;50.898;4.662;2024-03-23T02:15:47;10.50;99.90
29803;DHT22;16702;50.898;4.662;2024-03-23T02:19:03;10.40;99.90
29803;DHT22;16702;50.898;4.662;2024-03-23T02:22:02;10.40;99.90
29803;DHT22;16702;50.898;4.662;2024-03-23T02:24:44;10.30;99.90
29803;DHT22;16702;50.898;4.662;2024-03-23T02:28:10;10.30;99.90
29803;DHT22;16702;50.898;4.662;2024-03-23T02:30:35;10.40;99.90
29803;DHT22;16702;50.898;4.662;2024-03-23T02:34:12;10.40;99.90
29803;DHT22;16702;50.898;4.662;2024-03-23T02:38:36;10.40;99.90
29803;DHT22;16702;50.898;4.662;2024-03-23T02:39:27;10.30;99.90
29803;DHT22;16702;50.898;4.662;2024-03-23T02:42:01;10.20;99.90
29803;DHT22;16702;50.898;4.662;2024-03-23T02:44:44;10.20;99.90
29803;DHT22;16702;50.898;4.662;2024-03-23T02:47:30;10.10;99.90
29803;DHT22;16702;50.898;4.662;2024-03-23T02:50:43;10.10;99.90
29803;DHT22;16702;50.898;4.662;2024-03-23T02:56:45;10.20;99.90
29803;DHT22;16702;50.898;4.662;2024-03-23T03:01:32;10.20;99.90
29803;DHT22;16702;50.898;4.662;2024-03-23T03:02:23;10.20;99.90
29803;DHT22;16702;50.898;4.662;2024-03-23T03:05:07;10.10;99.90
29803;DHT22;16702;50.898;4.662;2024-03-23T03:07:45;10.20;99.90
29803;DHT22;16702;50.898;4.662;2024-03-23T03:13:40;10.00;99.90
29803;DHT22;16702;50.898;4.662;2024-03-23T03:17:30;10.00;99.90
29803;DHT22;16702;50.898;4.662;2024-03-23T03:19:26;10.00;99.90
29803;DHT22;16702;50.898;4.662;2024-03-23T03:22:07;10.00;99.90
29803;DHT22;16702;50.898;4.662;2024-03-23T03:27:20;10.00;99.90
29803;DHT22;16702;50.898;4.662;2024-03-23T03:27:42;10.00;99.90
29803;DHT22;16702;50.898;4.662;2024-03-23T03:31:30;10.00;99.90
29803;DHT22;16702;50.898;4.662;2024-03-23T03:36:31;10.00;99.90
29803;DHT22;16702;50.898;4.662;2024-03-23T03:42:35;10.10;99.90
29803;DHT22;16702;50.898;4.662;2024-03-23T03:46:27;10.10;99.90
29803;DHT22;16702;50.898;4.662;2024-03-23T03:48:07;9.90;99.90
29803;DHT22;16702;50.898;4.662;2024-03-23T03:50:47;10.00;99.90
29803;DHT22;16702;50.898;4.662;2024-03-23T03:59:39;10.00;99.90
29803;DHT22;16702;50.898;4.662;2024-03-23T04:02:57;10.00;99.90
29803;DHT22;16702;50.898;4.662;2024-03-23T04:05:25;9.90;99.90
29803;DHT22;16702;50.898;4.662;2024-03-23T04:08:06;10.00;99.90
29803;DHT22;16702;50.898;4.662;2024-03-23T04:12:51;9.90;99.90
29803;DHT22;16702;50.898;4.662;2024-03-23T04:13:43;9.80;99.90
29803;DHT22;16702;50.898;4.662;2024-03-23T04:16:34;9.80;99.90
29803;DHT22;16702;50.898;4.662;2024-03-23T04:19:06;9.80;99.90
29803;DHT22;16702;50.898;4.662;2024-03-23T04:22:23;9.80;99.90
29803;DHT22;16702;50.898;4.662;2024-03-23T04:25:09;9.80;99.90
29803;DHT22;16702;50.898;4.662;2024-03-23T04:27:30;9.70;99.90
29803;DHT22;16702;50.898;4.662;2024-03-23T04:30:31;9.70;99.90
29803;DHT22;16702;50.898;4.662;2024-03-23T04:32:58;9.70;99.90
29803;DHT22;16702;50.898;4.662;2024-03-23T04:36:32;9.60;99.90
29803;DHT22;16702;50.898;4.662;2024-03-23T04:41:30;9.60;99.90
29803;DHT22;16702;50.898;4.662;2024-03-23T04:45:06;9.50;99.90
29803;DHT22;16702;50.898;4.662;2024-03-23T04:47:45;9.50;99.90
29803;DHT22;16702;50.898;4.662;2024-03-23T04:56:53;9.50;99.90
29803;DHT22;16702;50.898;4.662;2024-03-23T04:59:41;9.40;99.90
29803;DHT22;16702;50.898;4.662;2024-03-23T05:02:16;9.40;99.90
29803;DHT22;16702;50.898;4.662;2024-03-23T05:07:23;9.40;99.90
29803;DHT22;16702;50.898;4.662;2024-03-23T05:08:04;9.50;99.90
29803;DHT22;16702;50.898;4.662;2024-03-23T05:10:51;9.40;99.90
29803;DHT22;16702;50.898;4.662;2024-03-23T05:13:34;9.40;99.90
29803;DHT22;16702;50.898;4.662;2024-03-23T05:16:25;9.30;99.90
29803;DHT22;16702;50.898;4.662;2024-03-23T05:19:21;9.30;99.90
29803;DHT22;16702;50.898;4.662;2024-03-23T05:22:01;9.30;99.90
29803;DHT22;16702;50.898;4.662;2024-03-23T05:24:56;9.30;99.90
29803;DHT22;16702;50.898;4.662;2024-03-23T05:29:41;9.20;99.90
29803;DHT22;16702;50.898;4.662;2024-03-23T05:30:36;9.20;99.90
29803;DHT22;16702;50.898;4.662;2024-03-23T05:33:16;9.20;99.90
29803;DHT22;16702;50.898;4.662;2024-03-23T05:36:19;9.10;99.90
29803;DHT22;16702;50.898;4.662;2024-03-23T05:38:51;9.10;99.90
29803;DHT22;16702;50.898;4.662;2024-03-23T05:44:27;9.00;99.90
29803;DHT22;16702;50.898;4.662;2024-03-23T05:47:05;8.90;99.90
29803;DHT22;16702;50.898;4.662;2024-03-23T05:50:41;9.00;99.90
29803;DHT22;16702;50.898;4.662;2024-03-23T05:56:36;8.90;99.90
29803;DHT22;16702;50.898;4.662;2024-03-23T06:02:17;8.90;99.90
29803;DHT22;16702;50.898;4.662;2024-03-23T06:18:17;8.90;99.90
29803;DHT22;16702;50.898;4.662;2024-03-23T06:18:39;8.90;99.90
29803;DHT22;16702;50.898;4.662;2024-03-23T06:21:19;8.90;99.90
29803;DHT22;16702;50.898;4.662;2024-03-23T06:24:37;8.90;99.90
29803;DHT22;16702;50.898;4.662;2024-03-23T06:30:27;8.80;99.90
29803;DHT22;16702;50.898;4.662;2024-03-23T06:35:51;8.80;99.90
29803;DHT22;16702;50.898;4.662;2024-03-23T06:36:42;8.90;99.90
29803;DHT22;16702;50.898;4.662;2024-03-23T06:39:26;8.90;99.90
29803;DHT22;16702;50.898;4.662;2024-03-23T06:42:06;8.90;99.90
29803;DHT22;16702;50.898;4.662;2024-03-23T06:44:53;8.80;99.90
29803;DHT22;16702;50.898;4.662;2024-03-23T06:48:46;8.80;99.90
29803;DHT22;16702;50.898;4.662;2024-03-23T06:50:25;8.80;99.90
29803;DHT22;16702;50.898;4.662;2024-03-23T06:52:59;8.70;99.90
29803;DHT22;16702;50.898;4.662;2024-03-23T06:55:33;8.60;99.90
29803;DHT22;16702;50.898;4.662;2024-03-23T06:58:11;8.90;99.90
29803;DHT22;16702;50.898;4.662;2024-03-23T07:01:17;8.80;99.90
29803;DHT22;16702;50.898;4.662;2024-03-23T07:07:50;8.80;99.90
29803;DHT22;16702;50.898;4.662;2024-03-23T07:13:19;8.80;99.90
29803;DHT22;16702;50.898;4.662;2024-03-23T07:16:14;8.80;99.90
29803;DHT22;16702;50.898;4.662;2024-03-23T07:19:13;8.90;99.90
29803;DHT22;16702;50.898;4.662;2024-03-23T07:22:16;8.90;99.90
29803;DHT22;16702;50.898;4.662;2024-03-23T07:25:24;8.90;99.90
29803;DHT22;16702;50.898;4.662;2024-03-23T07:29:07;8.90;99.90
29803;DHT22;16702;50.898;4.662;2024-03-23T07:31:16;8.80;99.90
29803;DHT22;16702;50.898;4.662;2024-03-23T07:36:06;8.80;99.90
29803;DHT22;16702;50.898;4.662;2024-03-23T07:37:24;8.80;99.90
29803;DHT22;16702;50.898;4.662;2024-03-23T07:40:07;8.70;99.90
29803;DHT22;16702;50.898;4.662;2024-03-23T07:42:37;8.70;99.90
29803;DHT22;16702;50.898;4.662;2024-03-23T07:45:10;8.70;99.90
29803;DHT22;16702;50.898;4.662;2024-03-23T07:50:59;8.60;99.90
29803;DHT22;16702;50.898;4.662;2024-03-23T07:53:28;8.40;99.90
29803;DHT22;16702;50.898;4.662;2024-03-23T07:56:14;8.60;99.90
29803;DHT22;16702;50.898;4.662;2024-03-23T08:01:03;8.60;99.90
29803;DHT22;16702;50.898;4.662;2024-03-23T08:03:03;8.60;99.90
29803;DHT22;16702;50.898;4.662;2024-03-23T08:05:21;8.70;99.90
29803;DHT22;16702;50.898;4.662;2024-03-23T08:08:05;8.50;99.90
29803;DHT22;16702;50.898;4.662;2024-03-23T08:14:00;8.70;99.90
29803;DHT22;16702;50.898;4.662;2024-03-23T08:16:33;8.80;99.90
29803;DHT22;16702;50.898;4.662;2024-03-23T08:19:20;8.80;99.90
29803;DHT22;16702;50.898;4.662;2024-03-23T08:21:55;8.90;99.90
29803;DHT22;16702;50.898;4.662;2024-03-23T08:24:30;8.90;99.90
29803;DHT22;16702;50.898;4.662;2024-03-23T08:29:07;8.90;99.90
29803;DHT22;16702;50.898;4.662;2024-03-23T08:31:27;8.90;99.90
29803;DHT22;16702;50.898;4.662;2024-03-23T08:33:17;8.90;99.90
29803;DHT22;16702;50.898;4.662;2024-03-23T08:38:14;8.90;99.90
29803;DHT22;16702;50.898;4.662;2024-03-23T08:42:49;9.00;99.90
29803;DHT22;16702;50.898;4.662;2024-03-23T08:45:22;9.10;99.90
29803;DHT22;16702;50.898;4.662;2024-03-23T08:48:08;9.10;99.90
29803;DHT22;16702;50.898;4.662;2024-03-23T08:50:35;9.10;99.90
29803;DHT22;16702;50.898;4.662;2024-03-23T08:53:18;9.10;99.90
29803;DHT22;16702;50.898;4.662;2024-03-23T08:56:20;9.30;99.90
29803;DHT22;16702;50.898;4.662;2024-03-23T08:59:12;9.20;99.90
29803;DHT22;16702;50.898;4.662;2024-03-23T09:02:30;9.20;99.90
29803;DHT22;16702;50.898;4.662;2024-03-23T09:05:19;9.10;99.90
29803;DHT22;16702;50.898;4.662;2024-03-23T09:08:26;9.20;99.90
29803;DHT22;16702;50.898;4.662;2024-03-23T09:11:27;9.20;99.90
29803;DHT22;16702;50.898;4.662;2024-03-23T09:14:08;9.10;99.90
29803;DHT22;16702;50.898;4.662;2024-03-23T09:17:07;9.20;99.90
29803;DHT22;16702;50.898;4.662;2024-03-23T09:20:09;9.20;99.90
29803;DHT22;16702;50.898;4.662;2024-03-23T09:25:08;9.40;99.90
29803;DHT22;16702;50.898;4.662;2024-03-23T09:29:06;9.40;99.90
29803;DHT22;16702;50.898;4.662;2024-03-23T09:35:05;9.20;99.90
29803;DHT22;16702;50.898;4.662;2024-03-23T09:37:43;9.30;99.90
29803;DHT22;16702;50.898;4.662;2024-03-23T09:43:56;9.40;99.90
29803;DHT22;16702;50.898;4.662;2024-03-23T09:46:22;9.20;99.90
29803;DHT22;16702;50.898;4.662;2024-03-23T09:54:49;9.40;99.90
29803;DHT22;16702;50.898;4.662;2024-03-23T09:55:13;9.40;99.90
29803;DHT22;16702;50.898;4.662;2024-03-23T10:00:33;9.50;99.90
29803;DHT22;16702;50.898;4.662;2024-03-23T10:00:55;9.60;99.90
29803;DHT22;16702;50.898;4.662;2024-03-23T10:04:23;9.70;99.90
29803;DHT22;16702;50.898;4.662;2024-03-23T10:07:02;9.60;99.90
29803;DHT22;16702;50.898;4.662;2024-03-23T10:10:21;9.70;99.90
29803;DHT22;16702;50.898;4.662;2024-03-23T10:12:47;9.80;99.90
29803;DHT22;16702;50.898;4.662;2024-03-23T10:18:25;9.90;99.90
29803;DHT22;16702;50.898;4.662;2024-03-23T10:19:00;10.10;99.90
29803;DHT22;16702;50.898;4.662;2024-03-23T10:21:38;10.30;99.90
29803;DHT22;16702;50.898;4.662;2024-03-23T10:24:19;10.30;99.90
29803;DHT22;16702;50.898;4.662;2024-03-23T10:26:57;10.50;99.90
29803;DHT22;16702;50.898;4.662;2024-03-23T10:29:30;10.40;99.90
29803;DHT22;16702;50.898;4.662;2024-03-23T10:32:10;10.20;99.90
29803;DHT22;16702;50.898;4.662;2024-03-23T10:34:42;10.10;99.90
29803;DHT22;16702;50.898;4.662;2024-03-23T10:37:17;10.30;99.90
29803;DHT22;16702;50.898;4.662;2024-03-23T10:39:55;10.30;99.90
29803;DHT22;16702;50.898;4.662;2024-03-23T10:42:27;10.30;99.90
29803;DHT22;16702;50.898;4.662;2024-03-23T10:45:10;10.50;99.90
29803;DHT22;16702;50.898;4.662;2024-03-23T10:47:52;10.60;99.90
29803;DHT22;16702;50.898;4.662;2024-03-23T10:50:34;10.30;99.90
29803;DHT22;16702;50.898;4.662;2024-03-23T10:53:05;10.10;99.90
29803;DHT22;16702;50.898;4.662;2024-03-23T10:55:33;10.10;99.90
29803;DHT22;16702;50.898;4.662;2024-03-23T10:58:12;10.20;99.90
29803;DHT22;16702;50.898;4.662;2024-03-23T11:00:48;10.30;99.90
29803;DHT22;16702;50.898;4.662;2024-03-23T11:03:47;10.40;99.90
29803;DHT22;16702;50.898;4.662;2024-03-23T11:06:39;10.60;99.90
29803;DHT22;16702;50.898;4.662;2024-03-23T11:12:31;10.70;99.90
29803;DHT22;16702;50.898;4.662;2024-03-23T11:15:01;10.40;99.90
29803;DHT22;16702;50.898;4.662;2024-03-23T11:17:35;10.40;99.90
29803;DHT22;16702;50.898;4.662;2024-03-23T11:20:11;10.30;99.90
29803;DHT22;16702;50.898;4.662;2024-03-23T11:22:44;10.30;99.90
29803;DHT22;16702;50.898;4.662;2024-03-23T11:25:24;10.30;99.90
29803;DHT22;16702;50.898;4.662;2024-03-23T11:28:10;10.60;99.90
29803;DHT22;16702;50.898;4.662;2024-03-23T11:30:40;10.80;99.90
29803;DHT22;16702;50.898;4.662;2024-03-23T11:33:16;10.80;99.90
29803;DHT22;16702;50.898;4.662;2024-03-23T11:35:50;10.70;99.90
29803;DHT22;16702;50.898;4.662;2024-03-23T11:38:26;11.10;99.90
29803;DHT22;16702;50.898;4.662;2024-03-23T11:40:57;11.20;99.90
29803;DHT22;16702;50.898;4.662;2024-03-23T11:43:38;11.30;99.90
29803;DHT22;16702;50.898;4.662;2024-03-23T11:46:08;11.00;99.90
29803;DHT22;16702;50.898;4.662;2024-03-23T11:48:39;10.90;99.90
29803;DHT22;16702;50.898;4.662;2024-03-23T11:51:31;10.80;99.90
29803;DHT22;16702;50.898;4.662;2024-03-23T11:54:16;11.10;99.90
29803;DHT22;16702;50.898;4.662;2024-03-23T11:56:55;11.00;99.90
29803;DHT22;16702;50.898;4.662;2024-03-23T11:59:33;11.00;99.90
29803;DHT22;16702;50.898;4.662;2024-03-23T12:02:13;10.90;99.90
29803;DHT22;16702;50.898;4.662;2024-03-23T12:04:41;11.30;99.90
29803;DHT22;16702;50.898;4.662;2024-03-23T12:07:20;11.40;99.90
29803;DHT22;16702;50.898;4.662;2024-03-23T12:10:14;11.60;99.90
29803;DHT22;16702;50.898;4.662;2024-03-23T12:13:00;11.50;99.90
29803;DHT22;16702;50.898;4.662;2024-03-23T12:15:38;11.50;99.90
29803;DHT22;16702;50.898;4.662;2024-03-23T12:18:16;11.80;99.90
29803;DHT22;16702;50.898;4.662;2024-03-23T12:20:46;11.70;99.90
29803;DHT22;16702;50.898;4.662;2024-03-23T12:23:17;11.60;99.90
29803;DHT22;16702;50.898;4.662;2024-03-23T12:25:55;11.80;99.90
29803;DHT22;16702;50.898;4.662;2024-03-23T12:28:22;12.00;99.90
29803;DHT22;16702;50.898;4.662;2024-03-23T12:30:52;12.10;99.90
29803;DHT22;16702;50.898;4.662;2024-03-23T12:33:24;12.10;99.90
29803;DHT22;16702;50.898;4.662;2024-03-23T12:35:56;11.80;99.90
29803;DHT22;16702;50.898;4.662;2024-03-23T12:38:28;11.70;99.90
29803;DHT22;16702;50.898;4.662;2024-03-23T12:41:00;11.60;99.90
29803;DHT22;16702;50.898;4.662;2024-03-23T12:43:35;11.30;99.90
29803;DHT22;16702;50.898;4.662;2024-03-23T12:46:06;11.00;99.90
29803;DHT22;16702;50.898;4.662;2024-03-23T12:48:46;11.10;99.90
29803;DHT22;16702;50.898;4.662;2024-03-23T12:51:26;11.40;99.90
29803;DHT22;16702;50.898;4.662;2024-03-23T12:53:56;11.50;99.90
29803;DHT22;16702;50.898;4.662;2024-03-23T12:56:38;11.60;99.90
29803;DHT22;16702;50.898;4.662;2024-03-23T12:59:15;11.70;99.90
29803;DHT22;16702;50.898;4.662;2024-03-23T13:01:53;11.80;99.90
29803;DHT22;16702;50.898;4.662;2024-03-23T13:04:23;11.90;99.90
29803;DHT22;16702;50.898;4.662;2024-03-23T13:07:03;12.10;99.90
29803;DHT22;16702;50.898;4.662;2024-03-23T13:09:40;12.00;99.90
29803;DHT22;16702;50.898;4.662;2024-03-23T13:12:15;12.00;99.90
29803;DHT22;16702;50.898;4.662;2024-03-23T13:14:57;11.90;99.90
29803;DHT22;16702;50.898;4.662;2024-03-23T13:17:26;11.90;99.90
29803;DHT22;16702;50.898;4.662;2024-03-23T13:19:59;12.10;99.90
29803;DHT22;16702;50.898;4.662;2024-03-23T13:22:29;11.70;99.90
29803;DHT22;16702;50.898;4.662;2024-03-23T13:25:45;11.70;99.90
29803;DHT22;16702;50.898;4.662;2024-03-23T13:28:03;11.60;99.90
29803;DHT22;16702;50.898;4.662;2024-03-23T13:30:50;11.40;99.90
29803;DHT22;16702;50.898;4.662;2024-03-23T13:33:19;11.40;99.90
29803;DHT22;16702;50.898;4.662;2024-03-23T13:36:03;11.40;99.90
29803;DHT22;16702;50.898;4.662;2024-03-23T13:38:31;11.50;99.90
29803;DHT22;16702;50.898;4.662;2024-03-23T13:41:21;11.40;99.90
29803;DHT22;16702;50.898;4.662;2024-03-23T13:44:13;11.30;99.90
29803;DHT22;16702;50.898;4.662;2024-03-23T13:46:43;11.30;99.90
29803;DHT22;16702;50.898;4.662;2024-03-23T13:49:30;11.20;99.90
29803;DHT22;16702;50.898;4.662;2024-03-23T13:52:09;11.10;99.90
29803;DHT22;16702;50.898;4.662;2024-03-23T13:54:37;11.00;99.90
29803;DHT22;16702;50.898;4.662;2024-03-23T13:57:08;11.00;99.90
29803;DHT22;16702;50.898;4.662;2024-03-23T13:59:49;11.00;99.90
29803;DHT22;16702;50.898;4.662;2024-03-23T14:02:18;10.80;99.90
29803;DHT22;16702;50.898;4.662;2024-03-23T14:04:59;10.80;99.90
29803;DHT22;16702;50.898;4.662;2024-03-23T14:07:43;10.80;99.90
29803;DHT22;16702;50.898;4.662;2024-03-23T14:10:24;10.80;99.90
29803;DHT22;16702;50.898;4.662;2024-03-23T14:12:56;11.00;99.90
29803;DHT22;16702;50.898;4.662;2024-03-23T14:15:26;10.90;99.90
29803;DHT22;16702;50.898;4.662;2024-03-23T14:17:56;10.90;99.90
29803;DHT22;16702;50.898;4.662;2024-03-23T14:20:24;10.80;99.90
29803;DHT22;16702;50.898;4.662;2024-03-23T14:23:08;10.70;99.90
29803;DHT22;16702;50.898;4.662;2024-03-23T14:25:45;10.60;99.90
29803;DHT22;16702;50.898;4.662;2024-03-23T14:28:13;10.60;99.90
29803;DHT22;16702;50.898;4.662;2024-03-23T14:31:00;10.40;99.90
29803;DHT22;16702;50.898;4.662;2024-03-23T14:33:35;10.60;99.90
29803;DHT22;16702;50.898;4.662;2024-03-23T14:36:16;10.60;99.90
29803;DHT22;16702;50.898;4.662;2024-03-23T14:39:08;10.60;99.90
29803;DHT22;16702;50.898;4.662;2024-03-23T14:41:39;10.70;99.90
29803;DHT22;16702;50.898;4.662;2024-03-23T14:44:14;10.80;99.90
29803;DHT22;16702;50.898;4.662;2024-03-23T14:46:49;11.00;99.90
29803;DHT22;16702;50.898;4.662;2024-03-23T14:49:16;11.20;99.90
29803;DHT22;16702;50.898;4.662;2024-03-23T14:52:00;11.30;99.90
29803;DHT22;16702;50.898;4.662;2024-03-23T14:54:27;11.60;99.90
29803;DHT22;16702;50.898;4.662;2024-03-23T14:56:55;11.50;99.90
29803;DHT22;16702;50.898;4.662;2024-03-23T14:59:39;11.60;99.90
29803;DHT22;16702;50.898;4.662;2024-03-23T15:02:13;11.70;99.90
29803;DHT22;16702;50.898;4.662;2024-03-23T15:04:46;11.70;99.90
29803;DHT22;16702;50.898;4.662;2024-03-23T15:07:22;11.40;99.90
29803;DHT22;16702;50.898;4.662;2024-03-23T15:09:55;11.20;99.90
29803;DHT22;16702;50.898;4.662;2024-03-23T15:12:31;11.30;99.90
29803;DHT22;16702;50.898;4.662;2024-03-23T15:15:02;11.30;99.90
29803;DHT22;16702;50.898;4.662;2024-03-23T15:17:32;11.50;99.90
29803;DHT22;16702;50.898;4.662;2024-03-23T15:20:14;11.90;99.90
29803;DHT22;16702;50.898;4.662;2024-03-23T15:23:04;12.10;99.90
29803;DHT22;16702;50.898;4.662;2024-03-23T15:27:50;12.20;99.90
29803;DHT22;16702;50.898;4.662;2024-03-23T15:28:32;12.10;99.90
29803;DHT22;16702;50.898;4.662;2024-03-23T15:31:07;11.90;99.90
29803;DHT22;16702;50.898;4.662;2024-03-23T15:33:56;11.90;99.90
29803;DHT22;16702;50.898;4.662;2024-03-23T15:36:34;11.90;99.90
29803;DHT22;16702;50.898;4.662;2024-03-23T15:39:05;11.90;99.90
29803;DHT22;16702;50.898;4.662;2024-03-23T15:41:45;11.70;99.90
29803;DHT22;16702;50.898;4.662;2024-03-23T15:44:17;11.60;99.90
29803;DHT22;16702;50.898;4.662;2024-03-23T15:46:53;11.50;99.90
29803;DHT22;16702;50.898;4.662;2024-03-23T15:49:28;11.70;99.90
29803;DHT22;16702;50.898;4.662;2024-03-23T15:52:06;11.80;99.90
29803;DHT22;16702;50.898;4.662;2024-03-23T15:54:42;11.90;99.90
29803;DHT22;16702;50.898;4.662;2024-03-23T15:57:14;11.80;99.90
29803;DHT22;16702;50.898;4.662;2024-03-23T15:59:45;11.70;99.90
29803;DHT22;16702;50.898;4.662;2024-03-23T16:02:18;11.60;99.90
29803;DHT22;16702;50.898;4.662;2024-03-23T16:04:53;11.60;99.90
29803;DHT22;16702;50.898;4.662;2024-03-23T16:07:26;11.50;99.90
29803;DHT22;16702;50.898;4.662;2024-03-23T16:10:11;11.60;99.90
29803;DHT22;16702;50.898;4.662;2024-03-23T16:12:41;11.60;99.90
29803;DHT22;16702;50.898;4.662;2024-03-23T16:15:18;11.40;99.90
29803;DHT22;16702;50.898;4.662;2024-03-23T16:18:05;11.40;99.90
29803;DHT22;16702;50.898;4.662;2024-03-23T16:20:35;11.40;99.90
29803;DHT22;16702;50.898;4.662;2024-03-23T16:23:12;11.40;99.90
29803;DHT22;16702;50.898;4.662;2024-03-23T16:25:45;11.40;99.90
29803;DHT22;16702;50.898;4.662;2024-03-23T16:28:21;11.40;99.90
29803;DHT22;16702;50.898;4.662;2024-03-23T16:30:55;11.30;99.90
29803;DHT22;16702;50.898;4.662;2024-03-23T16:33:36;11.30;99.90
29803;DHT22;16702;50.898;4.662;2024-03-23T16:36:16;11.30;99.90
29803;DHT22;16702;50.898;4.662;2024-03-23T16:38:56;11.30;99.90
29803;DHT22;16702;50.898;4.662;2024-03-23T16:41:38;11.40;99.90
29803;DHT22;16702;50.898;4.662;2024-03-23T16:44:13;11.40;99.90
29803;DHT22;16702;50.898;4.662;2024-03-23T16:47:12;11.40;99.90
29803;DHT22;16702;50.898;4.662;2024-03-23T16:49:50;11.50;99.90
29803;DHT22;16702;50.898;4.662;2024-03-23T16:52:23;11.50;99.90
29803;DHT22;16702;50.898;4.662;2024-03-23T16:54:53;11.50;99.90
29803;DHT22;16702;50.898;4.662;2024-03-23T16:57:30;11.50;99.90
29803;DHT22;16702;50.898;4.662;2024-03-23T17:00:15;11.50;99.90
29803;DHT22;16702;50.898;4.662;2024-03-23T17:02:58;11.40;99.90
29803;DHT22;16702;50.898;4.662;2024-03-23T17:05:38;11.40;99.90
29803;DHT22;16702;50.898;4.662;2024-03-23T17:08:09;11.30;99.90
29803;DHT22;16702;50.898;4.662;2024-03-23T17:10:47;11.40;99.90
29803;DHT22;16702;50.898;4.662;2024-03-23T17:13:24;11.40;99.90
29803;DHT22;16702;50.898;4.662;2024-03-23T17:15:55;11.40;99.90
29803;DHT22;16702;50.898;4.662;2024-03-23T17:18:27;11.30;99.90
29803;DHT22;16702;50.898;4.662;2024-03-23T17:21:01;11.30;99.90
29803;DHT22;16702;50.898;4.662;2024-03-23T17:23:41;11.20;99.90
29803;DHT22;16702;50.898;4.662;2024-03-23T17:26:25;11.30;99.90
29803;DHT22;16702;50.898;4.662;2024-03-23T17:29:06;11.20;99.90
29803;DHT22;16702;50.898;4.662;2024-03-23T17:31:39;11.20;99.90
29803;DHT22;16702;50.898;4.662;2024-03-23T17:34:38;11.20;99.90
29803;DHT22;16702;50.898;4.662;2024-03-23T17:37:08;11.10;99.90
29803;DHT22;16702;50.898;4.662;2024-03-23T17:39:39;10.80;99.90
29803;DHT22;16702;50.898;4.662;2024-03-23T17:43:16;10.80;99.90
29803;DHT22;16702;50.898;4.662;2024-03-23T17:45:25;10.70;99.90
29803;DHT22;16702;50.898;4.662;2024-03-23T17:47:56;10.60;99.90
29803;DHT22;16702;50.898;4.662;2024-03-23T17:50:35;10.80;99.90
29803;DHT22;16702;50.898;4.662;2024-03-23T17:53:13;10.60;99.90
29803;DHT22;16702;50.898;4.662;2024-03-23T17:55:43;10.60;99.90
29803;DHT22;16702;50.898;4.662;2024-03-23T17:58:21;10.50;99.90
29803;DHT22;16702;50.898;4.662;2024-03-23T18:01:05;10.00;99.90
29803;DHT22;16702;50.898;4.662;2024-03-23T18:03:53;9.90;99.90
29803;DHT22;16702;50.898;4.662;2024-03-23T18:06:45;9.90;99.90
29803;DHT22;16702;50.898;4.662;2024-03-23T18:09:15;9.70;99.90
29803;DHT22;16702;50.898;4.662;2024-03-23T18:11:52;9.30;99.90
29803;DHT22;16702;50.898;4.662;2024-03-23T18:14:28;9.20;99.90
29803;DHT22;16702;50.898;4.662;2024-03-23T18:16:57;9.20;99.90
29803;DHT22;16702;50.898;4.662;2024-03-23T18:19:46;9.10;99.90
29803;DHT22;16702;50.898;4.662;2024-03-23T18:22:27;9.00;99.90
29803;DHT22;16702;50.898;4.662;2024-03-23T18:24:58;9.10;99.90
29803;DHT22;16702;50.898;4.662;2024-03-23T18:27:31;9.00;99.90
29803;DHT22;16702;50.898;4.662;2024-03-23T18:29:58;9.10;99.90
29803;DHT22;16702;50.898;4.662;2024-03-23T18:32:28;9.30;99.90
29803;DHT22;16702;50.898;4.662;2024-03-23T18:35:06;9.40;99.90
29803;DHT22;16702;50.898;4.662;2024-03-23T18:37:37;9.40;99.90
29803;DHT22;16702;50.898;4.662;2024-03-23T18:40:35;9.60;99.90
29803;DHT22;16702;50.898;4.662;2024-03-23T18:43:08;9.60;99.90
29803;DHT22;16702;50.898;4.662;2024-03-23T18:45:48;9.60;99.90
29803;DHT22;16702;50.898;4.662;2024-03-23T18:48:16;9.60;99.90
29803;DHT22;16702;50.898;4.662;2024-03-23T18:50:43;9.50;99.90
29803;DHT22;16702;50.898;4.662;2024-03-23T18:53:26;9.60;99.90
29803;DHT22;16702;50.898;4.662;2024-03-23T18:55:58;9.70;99.90
29803;DHT22;16702;50.898;4.662;2024-03-23T18:58:33;9.70;99.90
29803;DHT22;16702;50.898;4.662;2024-03-23T19:01:11;9.70;99.90
29803;DHT22;16702;50.898;4.662;2024-03-23T19:03:47;9.70;99.90
29803;DHT22;16702;50.898;4.662;2024-03-23T19:06:18;9.70;99.90
29803;DHT22;16702;50.898;4.662;2024-03-23T19:09:12;9.60;99.90
29803;DHT22;16702;50.898;4.662;2024-03-23T19:11:53;9.50;99.90
29803;DHT22;16702;50.898;4.662;2024-03-23T19:14:33;9.40;99.90
29803;DHT22;16702;50.898;4.662;2024-03-23T19:17:05;9.40;99.90
29803;DHT22;16702;50.898;4.662;2024-03-23T19:19:50;9.30;99.90
29803;DHT22;16702;50.898;4.662;2024-03-23T19:22:33;9.20;99.90
29803;DHT22;16702;50.898;4.662;2024-03-23T19:25:03;9.10;99.90
29803;DHT22;16702;50.898;4.662;2024-03-23T19:27:57;9.20;99.90
29803;DHT22;16702;50.898;4.662;2024-03-23T19:30:46;9.20;99.90
29803;DHT22;16702;50.898;4.662;2024-03-23T19:33:18;9.20;99.90
29803;DHT22;16702;50.898;4.662;2024-03-23T19:35:54;9.10;99.90
29803;DHT22;16702;50.898;4.662;2024-03-23T19:38:23;9.00;99.90
29803;DHT22;16702;50.898;4.662;2024-03-23T19:40:56;9.10;99.90
29803;DHT22;16702;50.898;4.662;2024-03-23T19:43:41;9.00;99.90